Latest Weather Observations for Gympie

IDQ60801

Issued at 12:02 am EST Saturday 21 January 2017 (issued every 30 minutes, with the page automatically refreshed every 10 minutes)

About weather observations | Map of weather stations | Latest weather observations for QLD | Other Formats
Station Details ID: 040093 Name: GYMPIE Lat: -26.18 Lon: 152.64 Height: 64.5 m
Data from the previous 72 hours. | See also: Recent months at Gympie
Date/Time
EST
Temp
°C
App
Temp
°C
Dew
Point
°C
Rel
Hum
%
Delta-T
°C
Wind Press
QNH
hPa
Press
MSL
hPa
Rain since
9am
mm
Dir  Spd
km/h
Gust
km/h
Spd
kts
Gust
kts
20/11:30pm 28.1 29.5 19.6 60 5.6 NNW 11 17 6 9 1005.7 1005.4 0.0
20/11:00pm 28.3 30.2 20.6 63 5.1 NNW 11 19 6 10 1005.9 1005.6 0.0
20/10:30pm 28.6 31.9 21.9 67 4.5 NNW 7 11 4 6 1006.3 1006.0 0.0
20/10:00pm 28.9 32.0 22.2 67 4.5 N 9 13 5 7 1006.1 1005.8 0.0
20/09:30pm 29.1 32.0 21.8 64 4.9 N 9 15 5 8 1005.7 1005.4 0.0
20/09:00pm 29.6 32.7 22.1 64 5.1 N 9 17 5 9 1005.5 1005.2 0.0
20/08:30pm 29.9 33.2 22.6 65 5.0 N 9 15 5 8 1005.1 1004.8 0.0
20/08:00pm 30.6 33.2 23.3 65 5.0 N 15 26 8 14 1004.6 1004.3 0.0
20/07:30pm 31.5 33.7 23.9 64 5.3 N 19 30 10 16 1004.6 1004.3 0.0
20/07:00pm 32.9 36.4 23.5 57 6.6 N 11 19 6 10 1004.3 1004.0 0.0
20/06:30pm 34.2 37.2 22.6 50 8.0 NNW 11 15 6 8 1003.8 1003.5 0.0
20/06:00pm 35.0 37.6 22.7 49 8.5 NNW 13 20 7 11 1003.6 1003.3 0.0
20/05:30pm 35.5 38.6 22.8 47 8.8 NNW 11 17 6 9 1003.5 1003.2 0.0
20/05:00pm 35.6 38.7 23.6 50 8.4 NW 13 28 7 15 1003.3 1003.0 0.0
20/04:30pm 35.6 38.7 23.6 50 8.4 NNW 13 19 7 10 1003.2 1002.9 0.0
20/04:00pm 35.0 37.6 23.3 50 8.2 N 15 28 8 15 1003.4 1003.1 0.0
20/03:30pm 35.0 37.2 23.3 50 8.2 NNW 17 28 9 15 1003.6 1003.3 0.0
20/03:00pm 35.0 37.8 23.7 52 7.9 NNW 15 22 8 12 1004.0 1003.7 0.0
20/02:30pm 34.2 36.7 23.2 52 7.6 N 15 30 8 16 1004.6 1004.3 0.0
20/02:00pm 34.0 36.8 23.7 55 7.2 NNW 15 26 8 14 1005.4 1005.1 0.0
20/01:30pm 33.6 36.5 23.9 57 6.8 NNW 15 24 8 13 1006.1 1005.8 0.0
20/01:00pm 32.3 34.7 23.0 58 6.4 N 15 24 8 13 1006.6 1006.3 0.0
20/12:30pm 32.3 35.2 23.8 61 5.9 NNW 15 24 8 13 1007.4 1007.0 0.0
20/12:00pm 31.5 34.6 23.6 63 5.5 NW 13 24 7 13 1008.1 1007.7 0.0
20/11:30am 31.5 35.2 23.9 64 5.3 NW 11 15 6 8 1008.3 1007.9 0.0
20/11:00am 30.5 32.5 22.9 64 5.2 N 17 24 9 13 1008.6 1008.2 0.0
20/10:30am 31.1 33.8 23.5 64 5.3 NNW 15 24 8 13 1009.0 1008.6 0.0
20/10:00am 30.2 32.9 22.9 65 5.0 NNW 13 20 7 11 1009.4 1009.0 0.0
20/09:30am 30.0 33.0 22.7 65 5.0 NNW 11 19 6 10 1009.5 1009.1 0.0
20/09:00am 29.2 33.7 22.9 69 4.3 NE 4 9 2 5 1009.8 1009.4 0.0
20/08:30am 28.4 33.6 23.5 75 3.4 NNW 2 4 1 2 1009.7 1009.3 0.0
20/08:00am 27.1 31.7 23.1 79 2.7 NNW 4 7 2 4 1010.0 1009.6 0.0
20/07:30am 26.7 31.8 23.4 82 2.3 S 2 6 1 3 1010.1 1009.7 0.0
20/07:00am 25.7 31.2 24.1 91 1.1 SSW 2 4 1 2 1010.1 1009.7 0.0
20/06:30am 24.9 31.2 24.7 99 0.1 CALM 0 0 0 0 1010.1 1009.7 0.0
20/06:00am 23.8 29.5 23.8 100 0.0 CALM 0 0 0 0 1009.8 1009.4 0.0
20/05:30am 23.5 29.1 23.5 100 0.0 CALM 0 0 0 0 1009.6 1009.2 0.0
20/05:00am 23.8 29.5 23.8 100 0.0 CALM 0 0 0 0 1009.2 1008.8 0.0
20/04:30am 24.0 29.8 24.0 100 0.0 CALM 0 0 0 0 1009.0 1008.6 0.0
20/04:00am 24.1 30.0 24.1 100 0.0 CALM 0 0 0 0 1008.8 1008.4 0.0
20/03:30am 24.0 29.8 24.0 100 0.0 CALM 0 4 0 2 1008.9 1008.5 0.0
20/03:00am 24.2 30.2 24.2 100 0.0 CALM 0 0 0 0 1009.1 1008.7 0.0
20/02:30am 24.2 29.7 24.0 99 0.1 S 2 4 1 2 1009.0 1008.6 0.0
20/02:00am 24.3 29.8 24.0 98 0.2 SSE 2 4 1 2 1009.5 1009.1 0.0
20/01:30am 24.3 29.4 24.0 98 0.2 SSE 4 6 2 3 1009.6 1009.2 0.0
20/01:00am 24.4 29.4 23.9 97 0.3 SSE 4 4 2 2 1009.9 1009.5 0.0
20/12:30am 24.5 29.5 23.8 96 0.5 SSE 4 6 2 3 1010.1 1009.7 0.0
20/12:00am 24.6 29.3 23.9 96 0.5 SSE 6 7 3 4 1010.3 1009.9 0.0
 
Date/Time
EST
Temp
°C
App
Temp
°C
Dew
Point
°C
Rel
Hum
%
Delta-T
°C
Wind Press
QNH
hPa
Press
MSL
hPa
Rain since
9am
mm
Dir  Spd
km/h
Gust
km/h
Spd
kts
Gust
kts
19/11:30pm 24.6 29.3 23.9 96 0.5 SSE 6 7 3 4 1010.7 1010.3 0.0
19/11:00pm 24.3 29.7 23.8 97 0.3 SSE 2 6 1 3 1010.9 1010.5 0.0
19/10:30pm 24.1 28.8 23.4 96 0.5 SSE 4 6 2 3 1010.7 1010.3 0.0
19/10:00pm 23.9 28.4 23.0 95 0.6 SSE 4 6 2 3 1011.0 1010.6 0.0
19/09:30pm 24.2 29.0 22.8 92 0.9 SSE 2 4 1 2 1010.9 1010.5 0.0
19/09:00pm 24.7 28.6 22.6 88 1.4 SSE 6 7 3 4 1010.8 1010.4 0.0
19/08:30pm 25.4 28.7 22.5 84 2.0 SE 9 17 5 9 1010.5 1010.1 0.0
19/08:00pm 25.7 29.2 22.2 81 2.4 SE 7 15 4 8 1010.7 1010.3 0.0
19/07:30pm 26.1 28.8 22.2 79 2.6 SE 11 17 6 9 1010.7 1010.3 0.0
19/07:00pm 25.7 30.0 22.6 83 2.1 SSE 4 7 2 4 1010.7 1010.3 0.0
19/06:30pm 26.3 29.8 22.2 78 2.8 SE 7 13 4 7 1010.4 1010.0 0.0
19/06:00pm 27.0 29.7 22.2 75 3.2 ESE 11 20 6 11 1010.0 1009.6 0.0
19/05:30pm 27.5 30.4 22.4 73 3.5 SE 11 17 6 9 1009.5 1009.1 0.0
19/05:00pm 28.5 30.4 22.7 71 4.0 ESE 17 26 9 14 1008.9 1008.5 0.0
19/04:30pm 28.9 31.5 22.6 69 4.3 SE 13 24 7 13 1008.4 1008.0 0.0
19/04:00pm 29.6 31.0 22.6 66 4.8 ESE 19 28 10 15 1008.0 1007.6 0.0
19/03:30pm 30.9 33.2 22.8 62 5.6 ESE 15 28 8 15 1008.3 1007.9 0.0
19/03:00pm 30.5 33.2 22.1 61 5.7 ESE 11 24 6 13 1008.7 1008.3 0.0
19/02:30pm 30.8 32.9 22.4 61 5.7 ESE 15 24 8 13 1008.9 1008.5 0.0
19/02:00pm 31.7 34.9 23.0 60 6.0 ESE 11 22 6 12 1009.3 1008.9 0.0
19/01:30pm 30.9 33.0 22.5 61 5.7 ESE 15 24 8 13 1009.6 1009.2 0.0
19/01:00pm 31.9 34.8 23.2 60 6.0 E 13 26 7 14 1009.8 1009.4 0.0
19/12:30pm 31.8 35.6 24.1 63 5.4 E 11 17 6 9 1010.1 1009.7 0.0
19/12:00pm 32.2 36.3 24.0 62 5.7 SE 9 19 5 10 1010.2 1009.8 0.0
19/11:30am 32.4 37.1 25.5 67 4.9 ESE 11 19 6 10 1010.3 1009.9 0.0
19/11:00am 32.6 37.5 25.9 68 4.8 SSE 11 20 6 11 1010.4 1010.0 0.0
19/10:30am 30.9 35.0 24.5 68 4.5 SE 11 19 6 10 1010.6 1010.2 0.0
19/10:00am 31.4 36.5 26.2 74 3.7 SSE 11 17 6 9 1010.8 1010.4 0.0
19/09:30am 30.0 34.8 25.1 75 3.5 SE 9 15 5 8 1011.1 1010.7 0.0
19/09:00am 29.5 35.4 25.3 78 3.0 SSE 4 9 2 5 1011.1 1010.7 0.0
19/08:30am 28.5 34.6 25.7 85 2.0 SW 4 6 2 3 1011.2 1010.8 0.0
19/08:00am 26.7 32.3 24.9 90 1.3 NNW 4 7 2 4 1011.2 1010.8 0.0
19/07:30am 26.3 32.3 26.0 98 0.2 SE 6 11 3 6 1011.5 1011.1 0.0
19/07:00am 25.1 30.9 25.1 100 0.0 S 4 6 2 3 1011.1 1010.7 0.0
19/06:30am 24.4 29.3 24.4 100 0.0 NNW 6 9 3 5 1010.3 1009.9 0.0
19/06:00am 24.0 27.8 24.0 100 0.0 NNW 11 15 6 8 1009.7 1009.3 0.0
19/05:30am 23.4 28.1 23.4 100 0.0 NNW 4 6 2 3 1009.8 1009.4 0.0
19/05:00am 23.3 28.0 23.3 100 0.0 NNW 4 6 2 3 1009.4 1009.0 0.0
19/04:30am 23.7 29.0 23.7 100 0.0 NNW 2 4 1 2 1009.0 1008.6 0.0
19/04:00am 23.7 28.2 23.7 100 0.0 N 6 11 3 6 1008.5 1008.1 0.0
19/03:30am 23.8 28.4 23.8 100 0.0 NNW 6 9 3 5 1008.3 1007.9 0.0
19/03:00am 24.4 28.4 24.4 100 0.0 NNW 11 15 6 8 1008.4 1008.0 0.0
19/02:30am 24.6 29.1 24.6 100 0.0 NW 9 15 5 8 1008.3 1007.9 0.0
19/02:00am 24.4 29.3 24.4 100 0.0 NNW 6 9 3 5 1008.8 1008.4 0.0
19/01:30am 24.4 30.1 24.4 100 0.0 N 2 6 1 3 1009.4 1009.0 0.0
19/01:00am 24.9 30.5 24.9 100 0.0 NNW 4 7 2 4 1009.6 1009.2 0.0
19/12:30am 25.3 31.2 25.3 100 0.0 NNW 4 7 2 4 1009.8 1009.4 0.0
19/12:00am 25.5 31.0 24.6 95 0.6 NNW 4 6 2 3 1010.2 1009.8 0.0
 
Date/Time
EST
Temp
°C
App
Temp
°C
Dew
Point
°C
Rel
Hum
%
Delta-T
°C
Wind Press
QNH
hPa
Press
MSL
hPa
Rain since
9am
mm
Dir  Spd
km/h
Gust
km/h
Spd
kts
Gust
kts
18/11:30pm 25.9 30.6 25.0 95 0.6 NNW 9 13 5 7 1010.3 1009.9 0.0
18/11:00pm 26.2 30.8 24.8 92 1.0 NNW 9 17 5 9 1010.6 1010.2 0.0
18/10:30pm 26.3 30.7 24.5 90 1.2 NNW 9 13 5 7 1010.6 1010.2 0.0
18/10:00pm 26.6 31.2 24.1 86 1.7 N 7 11 4 6 1010.6 1010.2 0.0
18/09:30pm 26.7 31.3 23.2 81 2.4 NW 4 7 2 4 1010.7 1010.3 0.0
18/09:00pm 27.4 31.7 22.6 75 3.3 N 4 7 2 4 1010.3 1009.9 0.0
18/08:30pm 28.0 31.7 22.2 70 3.9 N 6 9 3 5 1010.1 1009.7 0.0
18/08:00pm 28.9 31.9 21.9 66 4.7 N 9 17 5 9 1009.9 1009.5 0.0
18/07:30pm 29.7 33.0 21.9 63 5.3 N 7 13 4 7 1009.6 1009.2 0.0
18/07:00pm 30.5 32.7 21.9 60 5.8 NNE 13 26 7 14 1009.2 1008.8 0.0
18/06:30pm 31.8 34.5 22.2 56 6.5 NNE 11 20 6 11 1008.9 1008.5 0.0
18/06:00pm 33.1 36.0 22.5 53 7.3 NNE 11 24 6 13 1008.7 1008.3 0.0
18/05:30pm 34.5 36.7 21.9 48 8.6 NNE 13 22 7 12 1008.3 1007.9 0.0
18/05:00pm 35.7 37.3 20.0 39 10.5 NNW 11 17 6 9 1008.4 1008.0 0.0
18/04:30pm 35.9 38.4 20.2 40 10.5 NNW 7 13 4 7 1008.4 1008.0 0.0
18/04:00pm 35.6 37.2 19.9 39 10.5 N 11 19 6 10 1008.5 1008.1 0.0
18/03:30pm 35.2 37.2 19.9 40 10.2 N 9 17 5 9 1008.8 1008.4 0.0
18/03:00pm 35.2 37.2 21.5 45 9.3 N 13 20 7 11 1009.2 1008.8 0.0
18/02:30pm 35.2 38.0 21.5 45 9.3 NNE 9 19 5 10 1009.7 1009.3 0.0
18/02:00pm 34.5 36.5 21.5 46 8.9 N 13 22 7 12 1010.2 1009.8 0.0
18/01:30pm 34.1 37.2 22.2 50 8.2 N 9 20 5 11 1010.8 1010.4 0.0
18/01:00pm 33.3 36.2 21.8 51 7.8 NNW 9 17 5 9 1011.2 1010.8 0.0
18/12:30pm 33.1 36.4 22.5 53 7.3 NW 9 15 5 8 1011.9 1011.5 0.0
18/12:00pm 32.3 36.4 23.0 58 6.4 N 6 11 3 6 1012.6 1012.2 0.0
18/11:30am 31.7 35.3 23.0 60 6.0 NNW 9 20 5 11 1013.2 1012.8 0.0
18/11:00am 31.1 34.0 23.2 63 5.4 N 13 24 7 13 1013.6 1013.2 0.0
18/10:30am 29.9 33.5 23.1 67 4.7 NNW 9 19 5 10 1014.1 1013.7 0.0
18/10:00am 29.3 32.9 23.7 72 3.9 N 11 20 6 11 1014.4 1014.0 0.0
18/09:30am 29.0 32.9 24.3 76 3.3 NNW 11 20 6 11 1014.7 1014.3 0.0
18/09:00am 26.9 30.3 23.4 81 2.4 WNW 11 17 6 9 1015.1 1014.7 0.0
18/08:30am 27.3 32.9 25.7 91 1.1 NW 7 15 4 8 1015.1 1014.7 0.0
18/08:00am 25.9 32.2 25.9 100 0.0 S 4 7 2 4 1015.3 1014.9 0.0
18/07:30am 24.3 30.3 24.3 100 0.0 CALM 0 4 0 2 1015.3 1014.9 0.0
18/07:00am 22.5 27.5 22.5 100 0.0 CALM 0 0 0 0 1015.1 1014.7 0.0
18/06:30am 20.9 25.1 20.9 100 0.0 CALM 0 0 0 0 1015.0 1014.6 0.0
18/06:00am 20.1 23.9 20.1 100 0.0 CALM 0 0 0 0 1015.0 1014.6 0.0
18/05:30am 20.0 23.7 20.0 100 0.0 CALM 0 0 0 0 1014.5 1014.1 0.0
18/05:00am 19.9 23.6 19.9 100 0.0 CALM 0 0 0 0 1014.1 1013.7 0.0
18/04:30am 20.4 24.3 20.4 100 0.0 CALM 0 0 0 0 1013.9 1013.5 0.0
18/04:00am 20.6 24.6 20.6 100 0.0 CALM 0 0 0 0 1013.9 1013.5 0.0
18/03:30am 20.7 24.8 20.7 100 0.0 CALM 0 0 0 0 1013.7 1013.3 0.0
18/03:00am 20.9 25.1 20.9 100 0.0 CALM 0 0 0 0 1013.9 1013.5 0.0
18/02:30am 21.0 25.2 21.0 100 0.0 CALM 0 0 0 0 1014.0 1013.6 0.0
18/02:00am 21.2 25.5 21.2 100 0.0 CALM 0 0 0 0 1014.2 1013.8 0.0
18/01:30am 21.5 26.0 21.5 100 0.0 CALM 0 0 0 0 1014.4 1014.0 0.0
18/01:00am 21.9 26.6 21.9 100 0.0 CALM 0 0 0 0 1014.7 1014.3 0.0
18/12:30am 22.2 27.0 22.2 100 0.0 CALM 0 0 0 0 1014.9 1014.5 0.0

Other Formats:

Comma delimited format used in spreadsheet applications
http://www.bom.gov.au/fwo/IDQ60801/IDQ60801.94566.axf

JavaScript Object Notation format (JSON) in row-major order
http://www.bom.gov.au/fwo/IDQ60801/IDQ60801.94566.json